createdAt,value
2023-04-23T00:01:43.669Z,9.25
2023-04-23T00:04:10.481Z,9.07
2023-04-23T00:06:37.307Z,8.57
2023-04-23T00:09:04.233Z,10.30
2023-04-23T00:11:31.166Z,11.10
2023-04-23T00:13:58.004Z,9.25
2023-04-23T00:16:25.203Z,11.25
2023-04-23T00:18:51.962Z,9.88
2023-04-23T00:21:18.659Z,12.00
2023-04-23T00:23:45.461Z,9.38
2023-04-23T00:26:12.153Z,11.40
2023-04-23T00:28:38.846Z,8.77
2023-04-23T00:31:05.747Z,7.93
2023-04-23T00:33:32.339Z,6.68
2023-04-23T00:35:59.073Z,10.73
2023-04-23T00:38:26.647Z,12.38
2023-04-23T00:40:53.324Z,7.57
2023-04-23T00:43:20.667Z,5.85
2023-04-23T00:45:47.892Z,6.57
2023-04-23T00:48:14.645Z,6.97
2023-04-23T00:50:42.032Z,6.82
2023-04-23T00:53:08.900Z,6.82
2023-04-23T00:55:35.591Z,9.38
2023-04-23T00:58:02.296Z,9.50
2023-04-23T01:00:29.085Z,7.68
2023-04-23T01:02:55.821Z,10.10
2023-04-23T01:05:22.681Z,8.30
2023-04-23T01:07:49.249Z,9.27
2023-04-23T01:10:16.925Z,9.23
2023-04-23T01:12:43.600Z,6.53
2023-04-23T01:15:10.753Z,8.25
2023-04-23T01:17:38.548Z,6.60
2023-04-23T01:20:06.748Z,7.00
2023-04-23T01:22:37.754Z,5.68
2023-04-23T01:25:04.773Z,8.02
2023-04-23T01:27:32.223Z,10.57
2023-04-23T01:29:59.019Z,6.70
2023-04-23T01:32:25.890Z,5.40
2023-04-23T01:34:54.106Z,5.57
2023-04-23T01:37:21.245Z,10.57
2023-04-23T01:39:47.830Z,11.23
2023-04-23T01:42:14.560Z,6.78
2023-04-23T01:44:41.680Z,7.05
2023-04-23T01:47:08.539Z,10.80
2023-04-23T01:49:35.093Z,13.32
2023-04-23T01:52:01.807Z,8.60
2023-04-23T01:54:28.519Z,7.72
2023-04-23T01:56:55.907Z,6.95
2023-04-23T01:59:22.928Z,10.18
2023-04-23T02:01:49.788Z,7.07
2023-04-23T02:04:17.098Z,11.48
2023-04-23T02:06:47.173Z,7.35
2023-04-23T02:09:14.014Z,8.73
2023-04-23T02:11:40.656Z,6.53
2023-04-23T02:14:08.013Z,8.68
2023-04-23T02:16:35.640Z,9.68
2023-04-23T02:19:02.275Z,12.43
2023-04-23T02:21:29.768Z,11.35
2023-04-23T02:23:56.344Z,13.57
2023-04-23T02:26:23.740Z,13.43
2023-04-23T02:28:50.988Z,18.83
2023-04-23T02:31:17.964Z,19.30
2023-04-23T02:33:44.905Z,15.75
2023-04-23T02:36:12.319Z,21.85
2023-04-23T02:38:42.387Z,15.73
2023-04-23T02:41:09.249Z,18.17
2023-04-23T02:43:35.869Z,14.13
2023-04-23T02:46:08.522Z,16.67
2023-04-23T02:48:39.731Z,22.10
2023-04-23T02:51:07.295Z,13.20
2023-04-23T02:53:33.957Z,20.63
2023-04-23T02:56:01.608Z,18.05
2023-04-23T02:58:28.409Z,15.88
2023-04-23T03:00:55.170Z,13.25
2023-04-23T03:03:22.217Z,17.55
2023-04-23T03:05:48.948Z,14.43
2023-04-23T03:08:15.657Z,11.80
2023-04-23T03:10:42.349Z,17.92
2023-04-23T03:13:08.957Z,12.57
2023-04-23T03:15:36.002Z,12.43
2023-04-23T03:18:04.490Z,37.72
2023-04-23T03:20:31.289Z,17.75
2023-04-23T03:22:58.227Z,23.85
2023-04-23T03:25:25.831Z,31.58
2023-04-23T03:27:53.084Z,21.38
2023-04-23T03:30:19.965Z,21.70
2023-04-23T03:32:46.669Z,12.80
2023-04-23T03:35:13.344Z,11.30
2023-04-23T03:37:40.008Z,15.48
2023-04-23T03:40:07.905Z,13.00
2023-04-23T03:42:34.738Z,14.50
2023-04-23T03:45:01.484Z,14.20
2023-04-23T03:47:28.250Z,21.25
2023-04-23T03:49:55.030Z,17.80
2023-04-23T03:52:21.734Z,12.07
2023-04-23T03:54:48.362Z,15.05
2023-04-23T03:57:15.092Z,26.30
2023-04-23T03:59:41.757Z,18.85
2023-04-23T04:02:08.506Z,25.38
2023-04-23T04:04:36.700Z,17.35
2023-04-23T04:07:03.627Z,24.52
2023-04-23T04:09:30.390Z,15.45
2023-04-23T04:11:57.018Z,18.55
2023-04-23T04:14:23.636Z,29.35
2023-04-23T04:16:50.795Z,20.77
2023-04-23T04:19:17.578Z,22.88
2023-04-23T04:21:44.241Z,24.15
2023-04-23T04:24:11.643Z,28.30
2023-04-23T04:26:38.383Z,27.85
2023-04-23T04:29:05.101Z,25.77
2023-04-23T04:31:32.422Z,21.38
2023-04-23T04:33:59.219Z,21.73
2023-04-23T04:36:27.259Z,22.15
2023-04-23T04:38:56.168Z,25.83
2023-04-23T04:41:25.498Z,55.05
2023-04-23T04:43:52.358Z,106.78
2023-04-23T04:46:20.846Z,74.13
2023-04-23T04:48:50.466Z,65.38
2023-04-23T04:51:17.126Z,70.13
2023-04-23T04:53:43.716Z,46.15
2023-04-23T04:56:10.388Z,44.40
2023-04-23T04:58:37.025Z,47.38
2023-04-23T05:01:03.995Z,47.45
2023-04-23T05:03:30.915Z,34.60
2023-04-23T05:05:58.956Z,36.60
2023-04-23T05:08:25.698Z,32.90
2023-04-23T05:10:54.043Z,26.83
2023-04-23T05:13:20.846Z,26.70
2023-04-23T05:15:47.442Z,43.83
2023-04-23T05:18:14.174Z,28.98
2023-04-23T05:20:41.657Z,20.45
2023-04-23T05:23:08.389Z,39.75
2023-04-23T05:25:35.784Z,25.38
2023-04-23T05:28:02.497Z,21.85
2023-04-23T05:30:29.279Z,25.83
2023-04-23T05:32:56.121Z,21.88
2023-04-23T05:35:22.863Z,19.27
2023-04-23T05:37:49.542Z,15.18
2023-04-23T05:40:16.201Z,14.70
2023-04-23T05:42:42.939Z,19.40
2023-04-23T05:45:10.010Z,25.30
2023-04-23T05:47:36.898Z,23.50
2023-04-23T05:50:03.707Z,28.58
2023-04-23T05:52:35.721Z,27.20
2023-04-23T05:55:02.497Z,18.75
2023-04-23T05:57:29.170Z,24.17
2023-04-23T05:59:55.809Z,30.48
2023-04-23T06:02:24.539Z,27.92
2023-04-23T06:04:52.157Z,21.50
2023-04-23T06:07:19.294Z,21.30
2023-04-23T06:09:45.892Z,17.45
2023-04-23T06:12:12.558Z,17.73
2023-04-23T06:14:39.573Z,22.05
2023-04-23T06:17:06.512Z,14.88
2023-04-23T06:19:33.156Z,13.63
2023-04-23T06:21:59.900Z,18.08
2023-04-23T06:24:26.548Z,17.77
2023-04-23T06:26:53.211Z,13.63
2023-04-23T06:29:19.804Z,15.10
2023-04-23T06:31:46.545Z,15.82
2023-04-23T06:34:13.211Z,24.70
2023-04-23T06:36:40.132Z,20.27
2023-04-23T06:39:06.950Z,12.50
2023-04-23T06:41:33.531Z,10.25
2023-04-23T06:44:00.604Z,12.88
2023-04-23T06:46:27.251Z,15.35
2023-04-23T06:48:53.950Z,13.98
2023-04-23T06:51:20.618Z,13.13
2023-04-23T06:53:47.396Z,14.00
2023-04-23T06:56:14.096Z,14.93
2023-04-23T06:58:41.245Z,13.13
2023-04-23T07:01:08.120Z,12.93
2023-04-23T07:03:36.467Z,11.10
2023-04-23T07:06:03.376Z,12.40
2023-04-23T07:08:30.119Z,11.45
2023-04-23T07:10:56.823Z,10.55
2023-04-23T07:13:24.176Z,10.68
2023-04-23T07:15:51.085Z,8.27
2023-04-23T07:18:17.945Z,9.73
2023-04-23T07:20:44.600Z,9.23
2023-04-23T07:23:11.316Z,12.45
2023-04-23T07:25:38.099Z,13.60
2023-04-23T07:28:04.719Z,13.32
2023-04-23T07:30:31.452Z,9.38
2023-04-23T07:32:58.283Z,8.18
2023-04-23T07:35:25.064Z,9.77
2023-04-23T07:37:53.989Z,8.55
2023-04-23T07:40:22.378Z,8.35
2023-04-23T07:42:49.008Z,10.60
2023-04-23T07:45:15.825Z,8.15
2023-04-23T07:47:42.444Z,7.53
2023-04-23T07:50:09.836Z,7.20
2023-04-23T07:52:36.534Z,7.40
2023-04-23T07:55:03.233Z,14.90
2023-04-23T07:57:29.889Z,7.28
2023-04-23T07:59:56.465Z,9.88
2023-04-23T08:02:26.253Z,8.70
2023-04-23T08:04:53.585Z,6.03
2023-04-23T08:07:20.658Z,8.60
2023-04-23T08:09:47.746Z,6.90
2023-04-23T08:12:17.218Z,9.90
2023-04-23T08:14:44.546Z,4.55
2023-04-23T08:17:11.245Z,5.80
2023-04-23T08:19:37.908Z,6.47
2023-04-23T08:22:04.615Z,7.45
2023-04-23T08:24:31.511Z,5.90
2023-04-23T08:26:58.206Z,5.47
2023-04-23T08:29:25.042Z,7.28
2023-04-23T08:31:51.656Z,9.98
2023-04-23T08:34:18.313Z,9.63
2023-04-23T08:36:46.444Z,8.60
2023-04-23T08:39:13.130Z,8.98
2023-04-23T08:41:43.258Z,6.50
2023-04-23T08:44:21.895Z,5.15
2023-04-23T08:46:49.347Z,5.57
2023-04-23T08:49:16.808Z,5.57
2023-04-23T08:51:50.921Z,11.13
2023-04-23T08:54:21.836Z,6.95
2023-04-23T08:56:48.486Z,5.40
2023-04-23T08:59:15.405Z,12.57
2023-04-23T09:01:42.035Z,5.60
2023-04-23T09:04:09.122Z,6.28
2023-04-23T09:06:36.551Z,7.28
2023-04-23T09:09:03.274Z,6.13
2023-04-23T09:11:29.980Z,7.00
2023-04-23T09:13:56.713Z,6.03
2023-04-23T09:16:23.444Z,5.88
2023-04-23T09:18:51.567Z,5.80
2023-04-23T09:21:18.335Z,5.55
2023-04-23T09:23:45.034Z,5.20
2023-04-23T09:26:19.286Z,6.28
2023-04-23T09:31:14.555Z,7.47
2023-04-23T09:33:41.150Z,6.03
2023-04-23T09:36:14.114Z,6.45
2023-04-23T09:38:43.731Z,8.85
2023-04-23T09:41:28.228Z,6.22
2023-04-23T09:43:55.451Z,6.03
2023-04-23T09:46:42.225Z,6.15
2023-04-23T09:49:10.465Z,7.40
2023-04-23T09:51:41.615Z,6.97
2023-04-23T09:54:15.605Z,5.70
2023-04-23T09:56:42.876Z,17.77
2023-04-23T09:59:46.258Z,8.10
2023-04-23T10:02:10.852Z,5.57
2023-04-23T10:04:38.471Z,9.63
2023-04-23T10:07:18.828Z,8.98
2023-04-23T10:09:46.752Z,6.43
2023-04-23T10:12:28.925Z,6.10
2023-04-23T10:15:00.279Z,9.27
2023-04-23T10:17:27.016Z,4.60
2023-04-23T10:19:53.633Z,8.07
2023-04-23T10:22:20.810Z,4.13
2023-04-23T10:24:49.533Z,7.07
2023-04-23T10:27:28.551Z,9.70
2023-04-23T10:29:59.825Z,8.90
2023-04-23T10:32:26.563Z,6.30
2023-04-23T10:34:53.452Z,7.53
2023-04-23T10:37:20.370Z,7.70
2023-04-23T10:39:50.354Z,7.63
2023-04-23T10:42:17.130Z,9.85
2023-04-23T10:47:15.022Z,9.55
2023-04-23T10:49:42.021Z,5.55
2023-04-23T10:52:20.068Z,7.22
2023-04-23T10:54:57.938Z,8.55
2023-04-23T10:57:24.635Z,24.50
2023-04-23T10:59:52.507Z,28.92
2023-04-23T11:02:19.325Z,18.10
2023-04-23T11:04:47.124Z,13.95
2023-04-23T11:07:14.017Z,9.05
2023-04-23T11:09:45.940Z,14.65
2023-04-23T11:12:14.032Z,11.75
2023-04-23T11:14:47.355Z,6.82
2023-04-23T11:17:18.522Z,6.57
2023-04-23T11:20:03.854Z,8.70
2023-04-23T11:22:37.499Z,6.20
2023-04-23T11:25:05.440Z,6.70
2023-04-23T11:27:32.615Z,13.45
2023-04-23T11:30:00.050Z,7.38
2023-04-23T11:32:27.930Z,7.07
2023-04-23T11:34:54.684Z,4.38
2023-04-23T11:37:21.386Z,2.75
2023-04-23T11:39:49.303Z,5.60
2023-04-23T11:42:16.617Z,3.25
2023-04-23T11:44:46.464Z,4.65
2023-04-23T11:47:14.204Z,3.88
2023-04-23T11:49:42.933Z,8.07
2023-04-23T11:52:10.386Z,4.57
2023-04-23T11:54:37.053Z,4.20
2023-04-23T11:57:05.048Z,7.35
2023-04-23T11:59:31.648Z,6.03
2023-04-23T12:01:59.105Z,4.55
2023-04-23T12:04:29.810Z,16.65
2023-04-23T12:06:57.839Z,5.47
2023-04-23T12:09:26.979Z,5.97
2023-04-23T12:11:53.703Z,5.25
2023-04-23T12:14:26.960Z,4.47
2023-04-23T12:16:53.689Z,3.47
2023-04-23T12:19:22.036Z,3.13
2023-04-23T12:21:49.795Z,4.22
2023-04-23T12:24:16.542Z,3.90
2023-04-23T12:26:46.359Z,5.07
2023-04-23T12:29:13.507Z,5.10
2023-04-23T12:31:40.426Z,3.60
2023-04-23T12:34:08.431Z,6.90
2023-04-23T12:36:38.557Z,3.33
2023-04-23T12:39:36.137Z,41.85
2023-04-23T12:42:05.156Z,6.38
2023-04-23T12:44:33.535Z,5.00
2023-04-23T12:47:03.522Z,15.93
2023-04-23T12:49:30.401Z,3.67
2023-04-23T12:52:02.803Z,5.47
2023-04-23T12:54:33.768Z,10.40
2023-04-23T12:57:02.803Z,4.60
2023-04-23T12:59:29.980Z,2.75
2023-04-23T13:01:56.804Z,3.80
2023-04-23T13:04:23.485Z,3.65
2023-04-23T13:06:51.398Z,3.17
2023-04-23T13:09:18.156Z,5.57
2023-04-23T13:11:46.228Z,4.22
2023-04-23T13:14:12.828Z,3.45
2023-04-23T13:16:39.553Z,3.97
2023-04-23T13:19:06.274Z,7.68
2023-04-23T13:21:32.834Z,3.72
2023-04-23T13:23:59.522Z,5.28
2023-04-23T13:26:27.065Z,7.45
2023-04-23T13:28:53.700Z,3.38
2023-04-23T13:31:21.271Z,2.95
2023-04-23T13:33:47.912Z,4.25
2023-04-23T13:36:14.607Z,7.10
2023-04-23T13:38:41.607Z,8.75
2023-04-23T13:41:08.288Z,6.93
2023-04-23T13:43:34.944Z,6.90
2023-04-23T13:46:01.772Z,5.88
2023-04-23T13:48:31.560Z,11.05
2023-04-23T13:51:01.647Z,6.15
2023-04-23T13:53:28.327Z,5.28
2023-04-23T13:55:55.946Z,5.35
2023-04-23T13:58:23.348Z,5.15
2023-04-23T14:00:50.280Z,4.32
2023-04-23T14:03:17.302Z,2.95
2023-04-23T14:05:43.988Z,7.00
2023-04-23T14:08:10.994Z,10.40
2023-04-23T14:10:39.031Z,4.20
2023-04-23T14:13:05.839Z,4.90
2023-04-23T14:15:32.453Z,3.83
2023-04-23T14:17:59.885Z,2.97
2023-04-23T14:20:26.637Z,4.03
2023-04-23T14:22:58.520Z,3.70
2023-04-23T14:25:46.633Z,5.53
2023-04-23T14:28:39.897Z,3.15
2023-04-23T14:31:07.098Z,8.60
2023-04-23T14:33:33.790Z,5.43
2023-04-23T14:36:00.476Z,5.28
2023-04-23T14:38:27.151Z,7.32
2023-04-23T14:40:53.862Z,4.50
2023-04-23T14:43:20.541Z,4.85
2023-04-23T14:45:47.314Z,4.40
2023-04-23T14:48:14.151Z,7.45
2023-04-23T14:50:40.822Z,3.88
2023-04-23T14:53:10.060Z,5.32
2023-04-23T14:55:36.782Z,5.53
2023-04-23T14:58:03.501Z,3.92
2023-04-23T15:00:30.275Z,4.57
2023-04-23T15:02:57.135Z,4.35
2023-04-23T15:05:24.303Z,5.43
2023-04-23T15:07:51.858Z,5.68
2023-04-23T15:10:20.394Z,8.20
2023-04-23T15:13:35.596Z,5.43
2023-04-23T15:16:03.069Z,4.95
2023-04-23T15:18:29.803Z,6.93
2023-04-23T15:20:56.458Z,5.20
2023-04-23T15:23:24.306Z,6.43
2023-04-23T15:25:51.027Z,6.32
2023-04-23T15:28:17.859Z,8.32
2023-04-23T15:30:47.725Z,7.65
2023-04-23T15:33:14.473Z,8.95
2023-04-23T15:35:41.133Z,5.40
2023-04-23T15:38:07.768Z,12.48
2023-04-23T15:40:42.048Z,9.93
2023-04-23T15:45:39.546Z,10.35
2023-04-23T15:48:06.283Z,8.10
2023-04-23T15:50:32.952Z,8.48
2023-04-23T15:53:01.483Z,5.95
2023-04-23T15:55:28.910Z,6.43
2023-04-23T15:57:55.784Z,7.38
2023-04-23T16:00:22.635Z,7.47
2023-04-23T16:02:49.456Z,8.90
2023-04-23T16:05:16.534Z,12.20
2023-04-23T16:07:44.388Z,12.63
2023-04-23T16:10:11.302Z,12.57
2023-04-23T16:12:38.215Z,9.15
2023-04-23T16:15:05.339Z,8.60
2023-04-23T16:17:31.992Z,10.80
2023-04-23T16:19:58.748Z,9.55
2023-04-23T16:22:25.582Z,9.60
2023-04-23T16:24:52.184Z,10.43
2023-04-23T16:27:18.879Z,11.63
2023-04-23T16:29:45.496Z,12.27
2023-04-23T16:32:12.252Z,15.02
2023-04-23T16:34:38.917Z,26.17
2023-04-23T16:37:05.933Z,14.88
2023-04-23T16:39:33.241Z,15.02
2023-04-23T16:42:00.010Z,17.23
2023-04-23T16:44:26.627Z,20.58
2023-04-23T16:46:53.268Z,33.00
2023-04-23T16:49:20.032Z,17.67
2023-04-23T16:51:46.635Z,12.27
2023-04-23T16:54:13.318Z,9.98
2023-04-23T16:56:39.960Z,9.88
2023-04-23T16:59:06.714Z,6.55
2023-04-23T17:01:33.354Z,8.52
2023-04-23T17:04:00.199Z,7.70
2023-04-23T17:06:28.143Z,10.88
2023-04-23T17:08:55.128Z,16.85
2023-04-23T17:11:23.189Z,11.18
2023-04-23T17:13:50.313Z,10.27
2023-04-23T17:16:17.077Z,17.10
2023-04-23T17:18:43.839Z,11.23
2023-04-23T17:21:10.807Z,10.38
2023-04-23T17:23:37.399Z,10.98
2023-04-23T17:26:04.127Z,14.23
2023-04-23T17:28:30.790Z,9.68
2023-04-23T17:30:57.489Z,10.82
2023-04-23T17:33:24.443Z,11.07
2023-04-23T17:35:52.257Z,30.80
2023-04-23T17:38:20.761Z,43.35
2023-04-23T17:40:48.459Z,47.75
2023-04-23T17:43:15.597Z,23.35
2023-04-23T17:45:42.402Z,19.15
2023-04-23T17:48:09.436Z,31.38
2023-04-23T17:50:36.488Z,30.50
2023-04-23T17:53:03.918Z,16.25
2023-04-23T17:55:32.868Z,17.38
2023-04-23T17:58:06.632Z,22.20
2023-04-23T18:00:36.946Z,22.42
2023-04-23T18:03:04.098Z,17.92
2023-04-23T18:05:31.278Z,41.75
2023-04-23T18:07:57.997Z,45.17
2023-04-23T18:10:24.755Z,35.40
2023-04-23T18:12:51.519Z,30.75
2023-04-23T18:15:18.278Z,34.17
2023-04-23T18:17:45.528Z,31.70
2023-04-23T18:20:13.452Z,37.53
2023-04-23T18:22:41.297Z,26.10
2023-04-23T18:25:10.151Z,24.30
2023-04-23T18:27:36.770Z,23.67
2023-04-23T18:30:05.566Z,17.48
2023-04-23T18:32:37.479Z,21.33
2023-04-23T18:35:08.097Z,15.93
2023-04-23T18:38:04.765Z,14.43
2023-04-23T18:40:31.416Z,22.92
2023-04-23T18:42:58.175Z,16.60
2023-04-23T18:45:24.931Z,17.55
2023-04-23T18:47:56.465Z,18.05
2023-04-23T18:50:30.371Z,16.02
2023-04-23T18:52:57.142Z,24.52
2023-04-23T18:55:23.827Z,14.93
2023-04-23T18:57:50.393Z,16.88
2023-04-23T19:00:17.241Z,22.58
2023-04-23T19:02:43.963Z,18.77
2023-04-23T19:05:11.385Z,18.98
2023-04-23T19:07:40.501Z,23.23
2023-04-23T19:10:07.878Z,20.73
2023-04-23T19:12:34.556Z,18.65
2023-04-23T19:15:01.244Z,16.17
2023-04-23T19:17:28.091Z,16.92
2023-04-23T19:19:54.940Z,20.67
2023-04-23T19:22:25.024Z,20.90
2023-04-23T19:24:51.729Z,15.95
2023-04-23T19:27:18.322Z,16.75
2023-04-23T19:29:46.588Z,16.77
2023-04-23T19:32:13.277Z,16.98
2023-04-23T19:34:40.055Z,22.98
2023-04-23T19:37:07.865Z,19.05
2023-04-23T19:39:34.492Z,13.98
2023-04-23T19:42:02.643Z,18.25
2023-04-23T19:44:29.570Z,14.90
2023-04-23T19:46:56.702Z,14.27
2023-04-23T19:49:23.510Z,26.77
2023-04-23T19:51:52.293Z,18.50
2023-04-23T19:54:18.944Z,17.42
2023-04-23T19:56:45.674Z,17.50
2023-04-23T19:59:15.350Z,16.92
2023-04-23T20:01:41.998Z,14.82
2023-04-23T20:04:09.402Z,14.77
2023-04-23T20:06:36.633Z,18.13
2023-04-23T20:09:17.946Z,18.85
2023-04-23T20:11:45.857Z,12.70
2023-04-23T20:14:13.039Z,13.00
2023-04-23T20:16:40.580Z,13.27
2023-04-23T20:19:10.952Z,14.02
2023-04-23T20:21:38.990Z,16.13
2023-04-23T20:24:07.367Z,12.25
2023-04-23T20:26:35.019Z,8.90
2023-04-23T20:29:01.770Z,20.27
2023-04-23T20:31:28.555Z,34.20
2023-04-23T20:33:55.813Z,35.33
2023-04-23T20:36:23.418Z,31.77
2023-04-23T20:38:50.186Z,50.90
2023-04-23T20:41:17.184Z,22.83
2023-04-23T20:43:43.880Z,19.85
2023-04-23T20:46:10.584Z,19.52
2023-04-23T20:48:37.445Z,18.45
2023-04-23T20:51:04.218Z,17.75
2023-04-23T20:53:30.926Z,12.23
2023-04-23T20:55:57.802Z,15.68
2023-04-23T20:58:24.506Z,12.90
2023-04-23T21:00:51.411Z,13.00
2023-04-23T21:03:18.905Z,12.63
2023-04-23T21:05:45.795Z,10.90
2023-04-23T21:08:13.744Z,12.20
2023-04-23T21:10:41.148Z,11.43
2023-04-23T21:13:08.515Z,13.65
2023-04-23T21:15:35.601Z,18.98
2023-04-23T21:18:02.865Z,11.38
2023-04-23T21:20:29.864Z,12.20
2023-04-23T21:22:56.521Z,10.85
2023-04-23T21:25:23.166Z,13.60
2023-04-23T21:27:50.491Z,30.08
2023-04-23T21:30:43.100Z,13.20
2023-04-23T21:33:09.833Z,15.23
2023-04-23T21:35:36.554Z,10.45
2023-04-23T21:38:03.240Z,13.73
2023-04-23T21:40:29.979Z,12.38
2023-04-23T21:42:56.728Z,12.07
2023-04-23T21:45:23.706Z,15.95
2023-04-23T21:47:51.096Z,14.95
2023-04-23T21:50:17.728Z,15.18
2023-04-23T21:52:44.594Z,13.13
2023-04-23T21:55:12.612Z,11.55
2023-04-23T21:57:39.217Z,15.48
2023-04-23T22:00:06.947Z,18.10
2023-04-23T22:02:33.928Z,17.55
2023-04-23T22:05:00.810Z,20.58
2023-04-23T22:07:29.463Z,39.03
2023-04-23T22:09:57.231Z,43.50
2023-04-23T22:12:23.958Z,35.88
2023-04-23T22:14:50.732Z,26.42
2023-04-23T22:17:18.848Z,24.77
2023-04-23T22:19:45.961Z,23.10
2023-04-23T22:22:12.684Z,22.42
2023-04-23T22:24:39.401Z,24.65
2023-04-23T22:27:08.709Z,18.38
2023-04-23T22:29:35.328Z,21.55
2023-04-23T22:32:02.100Z,18.80
2023-04-23T22:34:28.866Z,22.20
2023-04-23T22:36:55.682Z,18.65
2023-04-23T22:39:22.460Z,18.67
2023-04-23T22:41:49.104Z,22.10
2023-04-23T22:44:15.750Z,19.98
2023-04-23T22:46:42.883Z,19.98
2023-04-23T22:49:11.240Z,21.70
2023-04-23T22:51:39.163Z,18.27
2023-04-23T22:54:05.992Z,22.23
2023-04-23T22:56:32.719Z,24.75
2023-04-23T22:58:59.434Z,28.30
2023-04-23T23:01:26.433Z,23.65
2023-04-23T23:03:53.210Z,25.65
2023-04-23T23:06:19.926Z,24.67
2023-04-23T23:08:46.611Z,27.92
2023-04-23T23:11:13.291Z,22.10
2023-04-23T23:13:40.657Z,26.15
2023-04-23T23:16:07.305Z,22.13
2023-04-23T23:18:34.052Z,22.58
2023-04-23T23:21:01.137Z,18.23
2023-04-23T23:23:27.808Z,26.00
2023-04-23T23:25:55.150Z,20.35
2023-04-23T23:28:21.854Z,17.40
2023-04-23T23:30:49.195Z,14.70
2023-04-23T23:33:16.550Z,17.60
2023-04-23T23:35:43.766Z,19.35
2023-04-23T23:38:10.906Z,27.60
2023-04-23T23:40:37.829Z,23.75
2023-04-23T23:43:04.493Z,18.63
2023-04-23T23:45:31.776Z,20.17
2023-04-23T23:47:58.386Z,24.83
2023-04-23T23:50:26.160Z,23.70
2023-04-23T23:52:53.734Z,23.48
2023-04-23T23:55:20.441Z,28.90
2023-04-23T23:57:47.068Z,23.08
